createdAt,value
2023-04-01T00:00:35.003Z,755.00
2023-04-01T00:01:34.017Z,756.00
2023-04-01T00:02:35.141Z,754.00
2023-04-01T00:03:35.226Z,754.00
2023-04-01T00:04:35.109Z,752.00
2023-04-01T00:05:34.288Z,754.00
2023-04-01T00:06:35.057Z,753.00
2023-04-01T00:07:35.900Z,755.00
2023-04-01T00:08:35.110Z,754.00
2023-04-01T00:09:35.073Z,756.00
2023-04-01T00:10:35.091Z,754.00
2023-04-01T00:11:35.096Z,752.00
2023-04-01T00:12:34.081Z,752.00
2023-04-01T00:13:35.194Z,749.00
2023-04-01T00:14:35.102Z,750.00
2023-04-01T00:15:35.109Z,747.00
2023-04-01T00:16:35.165Z,746.00
2023-04-01T00:17:34.166Z,746.00
2023-04-01T00:18:35.153Z,746.00
2023-04-01T00:19:34.153Z,747.00
2023-04-01T00:20:35.167Z,746.00
2023-04-01T00:21:35.201Z,745.00
2023-04-01T00:22:35.224Z,745.00
2023-04-01T00:23:35.212Z,744.00
2023-04-01T00:24:34.231Z,744.00
2023-04-01T00:25:35.535Z,740.00
2023-04-01T00:26:35.268Z,740.00
2023-04-01T00:27:34.346Z,737.00
2023-04-01T00:28:35.281Z,734.00
2023-04-01T00:29:35.300Z,735.00
2023-04-01T00:30:35.292Z,737.00
2023-04-01T00:31:35.364Z,739.00
2023-04-01T00:32:35.445Z,741.00
2023-04-01T00:33:35.349Z,741.00
2023-04-01T00:34:35.362Z,742.00
2023-04-01T00:35:35.365Z,739.00
2023-04-01T00:36:35.381Z,737.00
2023-04-01T00:37:34.417Z,738.00
2023-04-01T00:38:34.439Z,739.00
2023-04-01T00:39:34.467Z,736.00
2023-04-01T00:40:35.519Z,735.00
2023-04-01T00:41:35.517Z,737.00
2023-04-01T00:42:35.487Z,737.00
2023-04-01T00:43:34.625Z,737.00
2023-04-01T00:44:34.534Z,738.00
2023-04-01T00:45:35.558Z,737.00
2023-04-01T00:46:35.583Z,737.00
2023-04-01T00:47:34.571Z,736.00
2023-04-01T00:48:34.570Z,738.00
2023-04-01T00:49:35.555Z,738.00
2023-04-01T00:50:35.550Z,737.00
2023-04-01T00:51:35.577Z,738.00
2023-04-01T00:52:35.597Z,738.00
2023-04-01T00:53:35.596Z,737.00
2023-04-01T00:54:35.608Z,737.00
2023-04-01T00:55:35.636Z,736.00
2023-04-01T00:56:34.641Z,739.00
2023-04-01T00:57:35.669Z,739.00
2023-04-01T00:58:35.707Z,739.00
2023-04-01T00:59:35.698Z,737.00
2023-04-01T01:00:35.730Z,737.00
2023-04-01T01:01:34.756Z,735.00
2023-04-01T01:02:35.937Z,736.00
2023-04-01T01:03:35.826Z,738.00
2023-04-01T01:04:35.794Z,740.00
2023-04-01T01:05:48.107Z,737.00
2023-04-01T01:06:35.898Z,739.00
2023-04-01T01:07:35.786Z,739.00
2023-04-01T01:08:35.819Z,738.00
2023-04-01T01:09:35.825Z,737.00
2023-04-01T01:10:35.789Z,737.00
2023-04-01T01:11:42.567Z,734.00
2023-04-01T01:12:35.785Z,734.00
2023-04-01T01:13:34.767Z,733.00
2023-04-01T01:14:35.798Z,732.00
2023-04-01T01:15:35.734Z,731.00
2023-04-01T01:16:35.787Z,730.00
2023-04-01T01:17:35.792Z,731.00
2023-04-01T01:18:35.727Z,730.00
2023-04-01T01:19:35.798Z,728.00
2023-04-01T01:20:35.706Z,727.00
2023-04-01T01:21:35.709Z,726.00
2023-04-01T01:22:35.694Z,730.00
2023-04-01T01:23:35.694Z,729.00
2023-04-01T01:24:35.705Z,731.00
2023-04-01T01:25:35.121Z,731.00
2023-04-01T01:26:35.688Z,731.00
2023-04-01T01:27:35.633Z,732.00
2023-04-01T01:28:34.709Z,733.00
2023-04-01T01:29:35.646Z,728.00
2023-04-01T01:30:35.676Z,730.00
2023-04-01T01:31:34.613Z,728.00
2023-04-01T01:32:35.626Z,729.00
2023-04-01T01:33:34.672Z,729.00
2023-04-01T01:34:34.641Z,728.00
2023-04-01T01:35:34.753Z,729.00
2023-04-01T01:36:34.577Z,730.00
2023-04-01T01:37:35.568Z,727.00
2023-04-01T01:38:34.577Z,725.00
2023-04-01T01:39:34.562Z,725.00
2023-04-01T01:40:34.609Z,724.00
2023-04-01T01:41:34.553Z,722.00
2023-04-01T01:42:34.518Z,721.00
2023-04-01T01:43:35.537Z,721.00
2023-04-01T01:44:35.504Z,722.00
2023-04-01T01:45:35.555Z,721.00
2023-04-01T01:46:35.557Z,723.00
2023-04-01T01:47:34.651Z,725.00
2023-04-01T01:48:35.513Z,726.00
2023-04-01T01:49:35.512Z,727.00
2023-04-01T01:50:35.569Z,727.00
2023-04-01T01:51:35.492Z,725.00
2023-04-01T01:52:35.451Z,725.00
2023-04-01T01:53:35.443Z,725.00
2023-04-01T01:54:35.453Z,727.00
2023-04-01T01:55:35.462Z,728.00
2023-04-01T01:56:34.417Z,724.00
2023-04-01T01:57:35.472Z,726.00
2023-04-01T01:58:35.437Z,724.00
2023-04-01T01:59:35.509Z,724.00
2023-04-01T02:00:34.490Z,721.00
2023-04-01T02:01:35.582Z,722.00
2023-04-01T02:02:34.602Z,721.00
2023-04-01T02:03:34.595Z,718.00
2023-04-01T02:04:35.623Z,716.00
2023-04-01T02:05:35.837Z,720.00
2023-04-01T02:06:34.654Z,721.00
2023-04-01T02:07:35.680Z,723.00
2023-04-01T02:08:35.700Z,722.00
2023-04-01T02:09:34.760Z,722.00
2023-04-01T02:10:35.889Z,721.00
2023-04-01T02:11:35.859Z,720.00
2023-04-01T02:12:35.813Z,719.00
2023-04-01T02:13:35.825Z,720.00
2023-04-01T02:14:34.858Z,719.00
2023-04-01T02:15:35.934Z,717.00
2023-04-01T02:16:35.923Z,717.00
2023-04-01T02:17:35.005Z,718.00
2023-04-01T02:18:35.970Z,719.00
2023-04-01T02:19:36.004Z,719.00
2023-04-01T02:20:35.028Z,720.00
2023-04-01T02:21:36.090Z,719.00
2023-04-01T02:22:36.081Z,717.00
2023-04-01T02:23:35.097Z,718.00
2023-04-01T02:24:36.150Z,720.00
2023-04-01T02:25:36.165Z,719.00
2023-04-01T02:26:35.181Z,719.00
2023-04-01T02:27:36.223Z,718.00
2023-04-01T02:28:36.268Z,715.00
2023-04-01T02:29:35.275Z,713.00
2023-04-01T02:30:36.313Z,711.00
2023-04-01T02:31:35.396Z,710.00
2023-04-01T02:32:36.416Z,710.00
2023-04-01T02:33:36.386Z,713.00
2023-04-01T02:34:36.493Z,714.00
2023-04-01T02:35:36.496Z,715.00
2023-04-01T02:36:36.494Z,715.00
2023-04-01T02:37:38.539Z,712.00
2023-04-01T02:38:36.529Z,715.00
2023-04-01T02:39:36.505Z,717.00
2023-04-01T02:40:35.493Z,718.00
2023-04-01T02:41:35.469Z,716.00
2023-04-01T02:42:36.472Z,715.00
2023-04-01T02:43:36.479Z,713.00
2023-04-01T02:44:35.454Z,713.00
2023-04-01T02:45:36.455Z,716.00
2023-04-01T02:46:36.482Z,715.00
2023-04-01T02:47:36.461Z,718.00
2023-04-01T02:48:36.442Z,719.00
2023-04-01T02:49:36.457Z,719.00
2023-04-01T02:50:36.406Z,718.00
2023-04-01T02:51:36.409Z,716.00
2023-04-01T02:52:36.398Z,717.00
2023-04-01T02:53:36.418Z,716.00
2023-04-01T02:54:36.390Z,716.00
2023-04-01T02:55:36.399Z,715.00
2023-04-01T02:56:36.381Z,714.00
2023-04-01T02:57:35.398Z,712.00
2023-04-01T02:58:35.372Z,713.00
2023-04-01T02:59:36.372Z,711.00
2023-04-01T03:00:35.411Z,711.00
2023-04-01T03:01:36.428Z,711.00
2023-04-01T03:02:35.426Z,711.00
2023-04-01T03:03:36.397Z,710.00
2023-04-01T03:04:35.384Z,711.00
2023-04-01T03:05:35.735Z,710.00
2023-04-01T03:06:36.491Z,711.00
2023-04-01T03:07:36.495Z,712.00
2023-04-01T03:08:36.531Z,714.00
2023-04-01T03:09:36.595Z,714.00
2023-04-01T03:10:36.635Z,713.00
2023-04-01T03:11:35.649Z,712.00
2023-04-01T03:12:35.668Z,714.00
2023-04-01T03:13:35.717Z,713.00
2023-04-01T03:14:36.744Z,712.00
2023-04-01T03:15:35.803Z,711.00
2023-04-01T03:16:35.874Z,710.00
2023-04-01T03:17:36.906Z,707.00
2023-04-01T03:18:36.925Z,706.00
2023-04-01T03:19:35.953Z,705.00
2023-04-01T03:20:36.972Z,705.00
2023-04-01T03:21:37.022Z,706.00
2023-04-01T03:22:37.056Z,704.00
2023-04-01T03:23:36.085Z,701.00
2023-04-01T03:24:37.202Z,699.00
2023-04-01T03:25:37.215Z,703.00
2023-04-01T03:26:37.213Z,703.00
2023-04-01T03:27:37.275Z,705.00
2023-04-01T03:28:36.317Z,705.00
2023-04-01T03:29:37.443Z,705.00
2023-04-01T03:30:36.425Z,705.00
2023-04-01T03:31:37.447Z,705.00
2023-04-01T03:32:37.497Z,704.00
2023-04-01T03:33:37.509Z,706.00
2023-04-01T03:34:37.540Z,703.00
2023-04-01T03:35:37.644Z,705.00
2023-04-01T03:36:36.747Z,705.00
2023-04-01T03:37:36.668Z,704.00
2023-04-01T03:38:37.701Z,704.00
2023-04-01T03:39:37.761Z,703.00
2023-04-01T03:40:37.820Z,703.00
2023-04-01T03:41:37.854Z,704.00
2023-04-01T03:42:37.969Z,703.00
2023-04-01T03:43:36.929Z,703.00
2023-04-01T03:44:37.942Z,705.00
2023-04-01T03:45:37.955Z,701.00
2023-04-01T03:46:38.189Z,700.00
2023-04-01T03:47:37.086Z,697.00
2023-04-01T03:48:38.084Z,699.00
2023-04-01T03:49:38.144Z,703.00
2023-04-01T03:50:38.190Z,705.00
2023-04-01T03:51:38.209Z,706.00
2023-04-01T03:52:38.248Z,705.00
2023-04-01T03:53:37.301Z,707.00
2023-04-01T03:54:37.348Z,707.00
2023-04-01T03:55:38.410Z,705.00
2023-04-01T03:56:38.451Z,708.00
2023-04-01T03:57:38.501Z,707.00
2023-04-01T03:58:38.530Z,707.00
2023-04-01T03:59:37.619Z,706.00
2023-04-01T04:00:37.689Z,707.00
2023-04-01T04:01:38.687Z,706.00
2023-04-01T04:02:38.757Z,703.00
2023-04-01T04:03:39.056Z,704.00
2023-04-01T04:04:37.885Z,703.00
2023-04-01T04:05:38.884Z,703.00
2023-04-01T04:06:38.965Z,706.00
2023-04-01T04:07:38.971Z,709.00
2023-04-01T04:08:39.019Z,707.00
2023-04-01T04:09:39.087Z,707.00
2023-04-01T04:10:39.150Z,706.00
2023-04-01T04:11:39.182Z,706.00
2023-04-01T04:12:39.233Z,704.00
2023-04-01T04:13:39.284Z,699.00
2023-04-01T04:14:39.383Z,698.00
2023-04-01T04:15:39.487Z,695.00
2023-04-01T04:16:38.422Z,694.00
2023-04-01T04:17:39.514Z,696.00
2023-04-01T04:18:38.493Z,698.00
2023-04-01T04:19:39.562Z,699.00
2023-04-01T04:20:39.595Z,700.00
2023-04-01T04:21:39.635Z,702.00
2023-04-01T04:22:38.690Z,699.00
2023-04-01T04:23:38.759Z,697.00
2023-04-01T04:24:38.803Z,696.00
2023-04-01T04:25:39.836Z,695.00
2023-04-01T04:26:39.861Z,694.00
2023-04-01T04:27:39.920Z,697.00
2023-04-01T04:28:38.984Z,699.00
2023-04-01T04:29:40.058Z,700.00
2023-04-01T04:30:40.113Z,700.00
2023-04-01T04:31:40.212Z,699.00
2023-04-01T04:32:40.185Z,701.00
2023-04-01T04:33:40.240Z,699.00
2023-04-01T04:34:40.324Z,699.00
2023-04-01T04:35:40.369Z,702.00
2023-04-01T04:36:40.381Z,701.00
2023-04-01T04:37:40.435Z,701.00
2023-04-01T04:38:40.472Z,700.00
2023-04-01T04:39:39.543Z,701.00
2023-04-01T04:40:40.586Z,701.00
2023-04-01T04:41:40.640Z,696.00
2023-04-01T04:42:40.708Z,690.00
2023-04-01T04:43:39.744Z,688.00
2023-04-01T04:44:40.807Z,692.00
2023-04-01T04:45:39.876Z,692.00
2023-04-01T04:46:40.957Z,691.00
2023-04-01T04:47:40.965Z,690.00
2023-04-01T04:48:40.053Z,691.00
2023-04-01T04:49:41.087Z,692.00
2023-04-01T04:50:41.130Z,690.00
2023-04-01T04:51:40.179Z,690.00
2023-04-01T04:52:41.230Z,690.00
2023-04-01T04:53:41.284Z,692.00
2023-04-01T04:54:41.374Z,693.00
2023-04-01T04:55:41.388Z,693.00
2023-04-01T04:56:41.432Z,691.00
2023-04-01T04:57:41.517Z,689.00
2023-04-01T04:58:41.589Z,689.00
2023-04-01T04:59:41.633Z,691.00
2023-04-01T05:00:40.646Z,692.00
2023-04-01T05:01:41.775Z,690.00
2023-04-01T05:02:41.007Z,690.00
2023-04-01T05:03:41.901Z,691.00
2023-04-01T05:04:41.871Z,695.00
2023-04-01T05:05:41.881Z,697.00
2023-04-01T05:06:41.978Z,693.00
2023-04-01T05:07:41.977Z,692.00
2023-04-01T05:08:42.021Z,691.00
2023-04-01T05:09:42.114Z,689.00
2023-04-01T05:10:41.152Z,692.00
2023-04-01T05:11:41.209Z,692.00
2023-04-01T05:12:42.246Z,696.00
2023-04-01T05:13:42.380Z,693.00
2023-04-01T05:14:42.385Z,693.00
2023-04-01T05:15:41.418Z,694.00
2023-04-01T05:16:42.558Z,694.00
2023-04-01T05:17:41.595Z,693.00
2023-04-01T05:18:42.596Z,693.00
2023-04-01T05:19:42.665Z,689.00
2023-04-01T05:20:42.714Z,691.00
2023-04-01T05:21:42.795Z,691.00
2023-04-01T05:22:42.800Z,690.00
2023-04-01T05:23:42.871Z,691.00
2023-04-01T05:24:42.927Z,689.00
2023-04-01T05:25:41.942Z,690.00
2023-04-01T05:26:43.010Z,689.00
2023-04-01T05:27:43.067Z,689.00
2023-04-01T05:28:42.133Z,689.00
2023-04-01T05:29:43.156Z,686.00
2023-04-01T05:30:43.304Z,687.00
2023-04-01T05:31:43.284Z,688.00
2023-04-01T05:32:43.511Z,688.00
2023-04-01T05:33:43.405Z,689.00
2023-04-01T05:34:43.440Z,687.00
2023-04-01T05:35:42.557Z,688.00
2023-04-01T05:36:42.534Z,688.00
2023-04-01T05:37:43.641Z,689.00
2023-04-01T05:38:43.667Z,688.00
2023-04-01T05:39:43.751Z,687.00
2023-04-01T05:40:43.814Z,688.00
2023-04-01T05:41:43.840Z,686.00
2023-04-01T05:42:43.869Z,687.00
2023-04-01T05:43:43.938Z,689.00
2023-04-01T05:44:44.044Z,689.00
2023-04-01T05:45:44.062Z,690.00
2023-04-01T05:46:43.117Z,689.00
2023-04-01T05:47:44.234Z,687.00
2023-04-01T05:48:44.232Z,683.00
2023-04-01T05:49:43.297Z,683.00
2023-04-01T05:50:43.338Z,682.00
2023-04-01T05:51:44.360Z,684.00
2023-04-01T05:52:43.438Z,683.00
2023-04-01T05:53:44.489Z,683.00
2023-04-01T05:54:44.549Z,682.00
2023-04-01T05:55:44.612Z,687.00
2023-04-01T05:56:43.670Z,687.00
2023-04-01T05:57:44.724Z,686.00
2023-04-01T05:58:44.790Z,688.00
2023-04-01T05:59:44.838Z,688.00
2023-04-01T06:00:45.509Z,689.00
2023-04-01T06:01:43.947Z,688.00
2023-04-01T06:02:45.124Z,686.00
2023-04-01T06:03:44.299Z,685.00
2023-04-01T06:04:45.247Z,685.00
2023-04-01T06:05:45.215Z,687.00
2023-04-01T06:06:45.289Z,685.00
2023-04-01T06:07:45.345Z,683.00
2023-04-01T06:08:44.437Z,682.00
2023-04-01T06:09:45.492Z,683.00
2023-04-01T06:10:45.526Z,683.00
2023-04-01T06:11:45.614Z,682.00
2023-04-01T06:12:45.640Z,681.00
2023-04-01T06:13:45.724Z,681.00
2023-04-01T06:14:45.814Z,680.00
2023-04-01T06:15:45.816Z,678.00
2023-04-01T06:16:45.889Z,680.00
2023-04-01T06:17:46.908Z,681.00
2023-04-01T06:18:46.032Z,683.00
2023-04-01T06:19:46.055Z,682.00
2023-04-01T06:20:45.122Z,680.00
2023-04-01T06:21:46.154Z,681.00
2023-04-01T06:22:46.257Z,678.00
2023-04-01T06:23:45.324Z,679.00
2023-04-01T06:24:46.434Z,678.00
2023-04-01T06:25:46.391Z,678.00
2023-04-01T06:26:45.467Z,679.00
2023-04-01T06:27:46.537Z,680.00
2023-04-01T06:28:45.646Z,682.00
2023-04-01T06:29:46.661Z,682.00
2023-04-01T06:30:45.708Z,682.00
2023-04-01T06:31:46.810Z,680.00
2023-04-01T06:32:46.886Z,678.00
2023-04-01T06:33:46.900Z,676.00
2023-04-01T06:34:46.986Z,675.00
2023-04-01T06:35:46.051Z,674.00
2023-04-01T06:36:46.127Z,676.00
2023-04-01T06:37:46.156Z,676.00
2023-04-01T06:38:47.269Z,675.00
2023-04-01T06:39:46.451Z,674.00
2023-04-01T06:40:47.432Z,675.00
2023-04-01T06:41:47.433Z,675.00
2023-04-01T06:42:47.481Z,674.00
2023-04-01T06:43:47.525Z,672.00
2023-04-01T06:44:46.596Z,671.00
2023-04-01T06:45:47.672Z,673.00
2023-04-01T06:46:46.708Z,675.00
2023-04-01T06:47:47.811Z,675.00
2023-04-01T06:48:47.857Z,677.00
2023-04-01T06:49:47.961Z,679.00
2023-04-01T06:50:47.941Z,678.00
2023-04-01T06:51:47.992Z,679.00
2023-04-01T06:52:48.106Z,679.00
2023-04-01T06:53:48.113Z,680.00
2023-04-01T06:54:47.357Z,679.00
2023-04-01T06:55:47.283Z,678.00
2023-04-01T06:56:48.311Z,677.00
2023-04-01T06:57:47.351Z,677.00
2023-04-01T06:58:48.385Z,677.00
2023-04-01T06:59:47.472Z,677.00
2023-04-01T07:00:48.511Z,678.00
2023-04-01T07:01:48.640Z,677.00
2023-04-01T07:02:48.693Z,677.00
2023-04-01T07:03:48.706Z,676.00
2023-04-01T07:04:48.778Z,676.00
2023-04-01T07:05:48.824Z,675.00
2023-04-01T07:06:48.892Z,674.00
2023-04-01T07:07:48.943Z,673.00
2023-04-01T07:08:49.009Z,673.00
2023-04-01T07:09:49.082Z,672.00
2023-04-01T07:10:48.125Z,673.00
2023-04-01T07:11:48.202Z,672.00
2023-04-01T07:12:49.219Z,672.00
2023-04-01T07:13:48.293Z,669.00
2023-04-01T07:14:49.353Z,670.00
2023-04-01T07:15:48.639Z,671.00
2023-04-01T07:16:48.492Z,672.00
2023-04-01T07:17:49.570Z,671.00
2023-04-01T07:18:49.561Z,673.00
2023-04-01T07:19:49.641Z,673.00
2023-04-01T07:20:48.800Z,675.00
2023-04-01T07:21:49.812Z,677.00
2023-04-01T07:22:49.865Z,678.00
2023-04-01T07:23:49.903Z,681.00
2023-04-01T07:24:49.981Z,679.00
2023-04-01T07:25:50.007Z,679.00
2023-04-01T07:26:50.174Z,679.00
2023-04-01T07:27:50.147Z,679.00
2023-04-01T07:28:50.186Z,677.00
2023-04-01T07:29:50.237Z,675.00
2023-04-01T07:30:50.320Z,675.00
2023-04-01T07:31:50.375Z,673.00
2023-04-01T07:32:50.523Z,673.00
2023-04-01T07:33:50.501Z,673.00
2023-04-01T07:34:50.595Z,672.00
2023-04-01T07:35:49.651Z,671.00
2023-04-01T07:36:50.692Z,670.00
2023-04-01T07:37:50.899Z,670.00
2023-04-01T07:38:50.887Z,671.00
2023-04-01T07:39:50.885Z,672.00
2023-04-01T07:40:49.979Z,671.00
2023-04-01T07:41:51.008Z,672.00
2023-04-01T07:42:51.077Z,671.00
2023-04-01T07:43:51.135Z,671.00
2023-04-01T07:44:51.225Z,669.00
2023-04-01T07:45:51.273Z,672.00
2023-04-01T07:46:51.324Z,672.00
2023-04-01T07:47:51.445Z,673.00
2023-04-01T07:48:51.438Z,674.00
2023-04-01T07:49:51.501Z,673.00
2023-04-01T07:50:51.885Z,672.00
2023-04-01T07:51:51.706Z,671.00
2023-04-01T07:52:50.737Z,671.00
2023-04-01T07:53:51.804Z,670.00
2023-04-01T07:54:51.852Z,667.00
2023-04-01T07:55:51.948Z,664.00
2023-04-01T07:56:51.088Z,662.00
2023-04-01T07:57:52.028Z,662.00
2023-04-01T07:58:52.149Z,662.00
2023-04-01T07:59:51.153Z,661.00
2023-04-01T08:00:51.224Z,660.00
2023-04-01T08:01:52.258Z,660.00
2023-04-01T08:02:51.368Z,660.00
2023-04-01T08:03:51.425Z,660.00
2023-04-01T08:04:52.424Z,663.00
2023-04-01T08:05:52.455Z,661.00
2023-04-01T08:06:52.575Z,661.00
2023-04-01T08:07:52.562Z,660.00
2023-04-01T08:08:52.616Z,658.00
2023-04-01T08:09:52.655Z,657.00
2023-04-01T08:10:52.736Z,659.00
2023-04-01T08:11:52.838Z,658.00
2023-04-01T08:12:52.842Z,659.00
2023-04-01T08:13:51.900Z,656.00
2023-04-01T08:14:52.965Z,653.00
2023-04-01T08:15:53.034Z,652.00
2023-04-01T08:16:54.463Z,652.00
2023-04-01T08:17:53.271Z,651.00
2023-04-01T08:18:53.298Z,657.00
2023-04-01T08:19:53.333Z,658.00
2023-04-01T08:20:52.392Z,659.00
2023-04-01T08:21:53.464Z,659.00
2023-04-01T08:22:53.536Z,659.00
2023-04-01T08:23:53.601Z,657.00
2023-04-01T08:24:52.712Z,659.00
2023-04-01T08:25:53.694Z,659.00
2023-04-01T08:26:53.785Z,659.00
2023-04-01T08:27:53.849Z,658.00
2023-04-01T08:28:52.868Z,655.00
2023-04-01T08:29:53.940Z,655.00
2023-04-01T08:30:52.907Z,656.00
2023-04-01T08:31:54.040Z,657.00
2023-04-01T08:32:53.133Z,656.00
2023-04-01T08:33:54.033Z,659.00
2023-04-01T08:34:53.089Z,659.00
2023-04-01T08:35:54.149Z,659.00
2023-04-01T08:36:54.184Z,658.00
2023-04-01T08:37:54.208Z,658.00
2023-04-01T08:38:54.361Z,657.00
2023-04-01T08:39:54.315Z,656.00
2023-04-01T08:40:54.412Z,657.00
2023-04-01T08:41:54.461Z,655.00
2023-04-01T08:42:54.499Z,655.00
2023-04-01T08:43:54.588Z,656.00
2023-04-01T08:44:54.563Z,652.00
2023-04-01T08:45:54.517Z,652.00
2023-04-01T08:46:53.583Z,653.00
2023-04-01T08:47:54.666Z,650.00
2023-04-01T08:48:54.643Z,647.00
2023-04-01T08:49:53.749Z,648.00
2023-04-01T08:50:54.730Z,650.00
2023-04-01T08:51:54.771Z,650.00
2023-04-01T08:52:54.797Z,650.00
2023-04-01T08:53:54.878Z,648.00
2023-04-01T08:54:54.934Z,648.00
2023-04-01T08:55:54.880Z,648.00
2023-04-01T08:56:54.931Z,650.00
2023-04-01T08:57:56.261Z,646.00
2023-04-01T08:58:54.937Z,643.00
2023-04-01T08:59:54.978Z,643.00
2023-04-01T09:00:54.984Z,643.00
2023-04-01T09:01:54.928Z,643.00
2023-04-01T09:02:55.002Z,645.00
2023-04-01T09:03:54.975Z,643.00
2023-04-01T09:04:53.883Z,643.00
2023-04-01T09:05:53.941Z,642.00
2023-04-01T09:06:53.870Z,641.00
2023-04-01T09:07:53.858Z,639.00
2023-04-01T09:08:53.927Z,637.00
2023-04-01T09:09:54.865Z,636.00
2023-04-01T09:10:53.841Z,634.00
2023-04-01T09:11:54.919Z,635.00
2023-04-01T09:12:54.849Z,636.00
2023-04-01T09:13:54.876Z,637.00
2023-04-01T09:14:53.900Z,636.00
2023-04-01T09:15:54.848Z,635.00
2023-04-01T09:16:54.897Z,634.00
2023-04-01T09:17:54.869Z,634.00
2023-04-01T09:18:53.830Z,635.00
2023-04-01T09:19:54.793Z,634.00
2023-04-01T09:20:54.762Z,631.00
2023-04-01T09:21:54.767Z,628.00
2023-04-01T09:22:54.771Z,627.00
2023-04-01T09:23:54.756Z,628.00
2023-04-01T09:24:54.748Z,627.00
2023-04-01T09:25:54.754Z,628.00
2023-04-01T09:26:54.734Z,631.00
2023-04-01T09:27:54.808Z,629.00
2023-04-01T09:28:54.702Z,628.00
2023-04-01T09:29:54.710Z,625.00
2023-04-01T09:30:53.843Z,625.00
2023-04-01T09:31:54.853Z,625.00
2023-04-01T09:32:53.949Z,631.00
2023-04-01T09:33:53.699Z,631.00
2023-04-01T09:34:54.836Z,631.00
2023-04-01T09:35:53.715Z,628.00
2023-04-01T09:36:54.663Z,628.00
2023-04-01T09:37:53.695Z,630.00
2023-04-01T09:38:54.646Z,630.00
2023-04-01T09:39:54.665Z,631.00
2023-04-01T09:40:53.630Z,629.00
2023-04-01T09:41:53.672Z,627.00
2023-04-01T09:42:53.621Z,629.00
2023-04-01T09:43:53.801Z,628.00
2023-04-01T09:44:54.601Z,627.00
2023-04-01T09:45:54.646Z,627.00
2023-04-01T09:46:54.641Z,627.00
2023-04-01T09:47:54.903Z,627.00
2023-04-01T09:48:54.711Z,628.00
2023-04-01T09:49:54.724Z,628.00
2023-04-01T09:50:54.754Z,629.00
2023-04-01T09:51:54.855Z,629.00
2023-04-01T09:52:54.792Z,628.00
2023-04-01T09:53:54.866Z,628.00
2023-04-01T09:54:54.841Z,628.00
2023-04-01T09:55:54.893Z,626.00
2023-04-01T09:56:54.901Z,626.00
2023-04-01T09:57:54.948Z,628.00
2023-04-01T09:58:54.966Z,625.00
2023-04-01T09:59:54.976Z,625.00
2023-04-01T10:00:54.964Z,623.00
2023-04-01T10:01:54.054Z,623.00
2023-04-01T10:02:54.026Z,625.00
2023-04-01T10:03:55.021Z,626.00
2023-04-01T10:04:55.093Z,625.00
2023-04-01T10:05:55.095Z,624.00
2023-04-01T10:06:55.054Z,624.00
2023-04-01T10:07:55.063Z,619.00
2023-04-01T10:08:54.145Z,618.00
2023-04-01T10:09:55.141Z,620.00
2023-04-01T10:10:54.148Z,622.00
2023-04-01T10:11:55.135Z,623.00
2023-04-01T10:12:54.189Z,626.00
2023-04-01T10:13:54.197Z,628.00
2023-04-01T10:14:55.238Z,626.00
2023-04-01T10:15:54.328Z,626.00
2023-04-01T10:16:55.176Z,626.00
2023-04-01T10:17:54.300Z,626.00
2023-04-01T10:18:55.213Z,626.00
2023-04-01T10:19:54.236Z,627.00
2023-04-01T10:20:55.239Z,627.00
2023-04-01T10:21:55.301Z,625.00
2023-04-01T10:22:55.247Z,624.00
2023-04-01T10:23:55.355Z,625.00
2023-04-01T10:24:55.279Z,628.00
2023-04-01T10:25:54.290Z,628.00
2023-04-01T10:26:55.317Z,629.00
2023-04-01T10:27:54.372Z,628.00
2023-04-01T10:28:55.359Z,626.00
2023-04-01T10:29:55.336Z,625.00
2023-04-01T10:30:55.353Z,628.00
2023-04-01T10:31:54.488Z,628.00
2023-04-01T10:32:54.567Z,626.00
2023-04-01T10:33:55.420Z,626.00
2023-04-01T10:34:55.412Z,628.00
2023-04-01T10:35:55.523Z,628.00
2023-04-01T10:36:54.442Z,627.00
2023-04-01T10:37:55.445Z,626.00
2023-04-01T10:38:54.484Z,624.00
2023-04-01T10:39:55.504Z,624.00
2023-04-01T10:40:54.537Z,626.00
2023-04-01T10:41:54.525Z,626.00
2023-04-01T10:42:54.541Z,627.00
2023-04-01T10:43:54.593Z,628.00
2023-04-01T10:44:55.579Z,626.00
2023-04-01T10:45:55.637Z,627.00
2023-04-01T10:46:55.593Z,628.00
2023-04-01T10:47:54.752Z,627.00
2023-04-01T10:48:55.625Z,628.00
2023-04-01T10:49:54.633Z,627.00
2023-04-01T10:50:54.634Z,625.00
2023-04-01T10:51:54.666Z,624.00
2023-04-01T10:52:55.670Z,624.00
2023-04-01T10:53:55.677Z,624.00
2023-04-01T10:54:55.697Z,622.00
2023-04-01T10:55:54.774Z,620.00
2023-04-01T10:56:55.885Z,619.00
2023-04-01T10:57:54.759Z,621.00
2023-04-01T10:58:55.779Z,622.00
2023-04-01T10:59:54.803Z,621.00
2023-04-01T11:00:55.793Z,622.00
2023-04-01T11:02:10.095Z,624.00
2023-04-01T11:02:55.827Z,627.00
2023-04-01T11:03:54.867Z,629.00
2023-04-01T11:04:55.735Z,630.00
2023-04-01T11:05:55.754Z,631.00
2023-04-01T11:06:55.776Z,632.00
2023-04-01T11:08:05.234Z,635.00
2023-04-01T11:08:55.734Z,635.00
2023-04-01T11:09:55.757Z,635.00
2023-04-01T11:10:55.772Z,635.00
2023-04-01T11:11:55.752Z,636.00
2023-04-01T11:12:55.778Z,635.00
2023-04-01T11:13:55.679Z,634.00
2023-04-01T11:14:55.667Z,630.00
2023-04-01T11:15:55.659Z,630.00
2023-04-01T11:16:55.680Z,629.00
2023-04-01T11:17:55.859Z,630.00
2023-04-01T11:18:55.630Z,631.00
2023-04-01T11:19:54.629Z,631.00
2023-04-01T11:20:55.647Z,632.00
2023-04-01T11:21:55.719Z,632.00
2023-04-01T11:22:55.662Z,633.00
2023-04-01T11:24:04.387Z,633.00
2023-04-01T11:24:55.626Z,635.00
2023-04-01T11:25:55.604Z,635.00
2023-04-01T11:26:55.748Z,634.00
2023-04-01T11:27:55.601Z,633.00
2023-04-01T11:28:55.614Z,634.00
2023-04-01T11:30:00.128Z,635.00
2023-04-01T11:30:55.649Z,635.00
2023-04-01T11:31:55.701Z,631.00
2023-04-01T11:32:55.895Z,630.00
2023-04-01T11:33:55.551Z,629.00
2023-04-01T11:34:55.542Z,632.00
2023-04-01T11:35:54.582Z,631.00
2023-04-01T11:36:55.536Z,630.00
2023-04-01T11:37:55.576Z,629.00
2023-04-01T11:38:55.549Z,632.00
2023-04-01T11:39:57.064Z,631.00
2023-04-01T11:40:54.540Z,631.00
2023-04-01T11:41:55.495Z,631.00
2023-04-01T11:42:54.535Z,630.00
2023-04-01T11:43:55.552Z,629.00
2023-04-01T11:44:54.465Z,630.00
2023-04-01T11:45:54.536Z,631.00
2023-04-01T11:46:55.434Z,630.00
2023-04-01T11:47:55.532Z,628.00
2023-04-01T11:48:55.482Z,627.00
2023-04-01T11:49:55.477Z,627.00
2023-04-01T11:50:55.425Z,628.00
2023-04-01T11:51:55.467Z,629.00
2023-04-01T11:52:55.444Z,630.00
2023-04-01T11:53:55.470Z,629.00
2023-04-01T11:54:55.384Z,629.00
2023-04-01T11:55:54.401Z,630.00
2023-04-01T11:56:55.385Z,630.00
2023-04-01T11:57:55.368Z,631.00
2023-04-01T11:58:55.363Z,631.00
2023-04-01T11:59:55.350Z,628.00
2023-04-01T12:00:55.343Z,628.00
2023-04-01T12:01:55.337Z,627.00
2023-04-01T12:02:55.424Z,626.00
2023-04-01T12:03:55.415Z,623.00
2023-04-01T12:04:55.533Z,622.00
2023-04-01T12:05:55.320Z,625.00
2023-04-01T12:06:54.299Z,627.00
2023-04-01T12:07:55.429Z,626.00
2023-04-01T12:08:55.270Z,623.00
2023-04-01T12:09:55.268Z,624.00
2023-04-01T12:10:55.402Z,626.00
2023-04-01T12:11:55.287Z,623.00
2023-04-01T12:13:01.241Z,625.00
2023-04-01T12:13:55.305Z,624.00
2023-04-01T12:14:55.266Z,624.00
2023-04-01T12:15:55.298Z,624.00
2023-04-01T12:16:54.212Z,625.00
2023-04-01T12:17:55.268Z,624.00
2023-04-01T12:18:55.204Z,624.00
2023-04-01T12:19:54.197Z,624.00
2023-04-01T12:20:54.216Z,626.00
2023-04-01T12:21:55.202Z,631.00
2023-04-01T12:22:55.199Z,628.00
2023-04-01T12:23:55.200Z,626.00
2023-04-01T12:24:55.170Z,627.00
2023-04-01T12:25:55.150Z,628.00
2023-04-01T12:26:54.256Z,628.00
2023-04-01T12:27:55.188Z,629.00
2023-04-01T12:28:55.230Z,627.00